Flight Track Log - Related Links

Times and Time Zones

All times are in EDT time to prevent confusion due to time zone crossing. See the N865JM flight status page for this flight to view local times or setup timezone preferences in your user account.

Time Position Orientation Groundspeed Altitude Reporting Facility
EDT Latitude Longitude Course Direction KTS MPH feet Rate Location/Type
Sun 11:14:37 AM 32.4572 -93.8436 319° Northwest 194 223 900  Level Fort Worth Center
Sun 11:15:14 AM 32.4850 -93.8719 319° Northwest 228 262 2,800 3,652 Climbing Fort Worth Center
Sun 11:16:09 AM 32.5472 -93.8597 North 270 311 6,500 3,813 Climbing Fort Worth Center
Sun 11:16:50 AM 32.5606 -93.8075 73° East 279 321 8,900 3,564 Climbing Fort Worth Center
Sun 11:17:50 AM 32.5306 -93.7150 111° Southeast 258 297 12,500 3,200 Climbing Fort Worth Center
Sun 11:18:50 AM 32.4964 -93.6153 112° Southeast 286 329 15,300 2,550 Climbing Fort Worth Center
Sun 11:19:50 AM 32.4642 -93.5183 111° Southeast 336 387 17,600 2,000 Climbing Fort Worth Center
Sun 11:20:50 AM 32.4247 -93.3919 110° East 357 411 19,300 1,800 Climbing Fort Worth Center
Sun 11:21:50 AM 32.3831 -93.2683 112° Southeast 379 436 21,200 1,700 Climbing Fort Worth Center
Sun 11:22:50 AM 32.3392 -93.1400 112° Southeast 396 456 22,700 1,628 Climbing Fort Worth Center
Sun 11:24:58 AM 32.2444 -92.8744 113° Southeast 434 499 26,300 1,547 Climbing Houston Center
Sun 11:26:00 AM 32.1978 -92.7386 112° Southeast 443 510 27,600 1,113 Climbing Houston Center
Sun 11:27:02 AM 32.1469 -92.5914 112° Southeast 459 528 28,600 968 Climbing Houston Center
Sun 11:28:04 AM 32.0969 -92.4481 112° Southeast 470 541 29,600 968 Climbing Houston Center
Sun 11:29:06 AM 32.0456 -92.3008 112° Southeast 481 554 30,600 968 Climbing Houston Center
Sun 11:30:08 AM 31.9928 -92.1522 113° Southeast 489 563 31,600 919 Climbing Houston Center
Sun 11:31:10 AM 31.9306 -91.9747 112° Southeast 498 573 32,500 871 Climbing Houston Center
Sun 11:32:12 AM 31.8758 -91.8222 113° Southeast 503 579 33,400 823 Climbing Houston Center
Sun 11:33:14 AM 31.8208 -91.6661 112° Southeast 512 589 34,200 774 Climbing Houston Center
Sun 11:34:16 AM 31.7642 -91.5103 113° Southeast 517 595 35,000 774 Climbing Houston Center
Sun 11:35:18 AM 31.7086 -91.3553 113° Southeast 515 593 35,800 871 Climbing Houston Center
Sun 11:36:20 AM 31.6414 -91.1694 113° Southeast 514 592 36,800 581 Climbing Houston Center
Sun 11:37:22 AM 31.5886 -91.0258 113° Southeast 512 589 37,000 97 Climbing Houston Center
Sun 11:38:24 AM 31.5303 -90.8689 114° Southeast 522 601 37,000  Level Houston Center
Sun 11:39:26 AM 31.4722 -90.7111 113° Southeast 527 606 37,000  Level Houston Center
Sun 11:40:28 AM 31.4147 -90.5531 113° Southeast 526 605 37,000  Level Houston Center
Sun 11:41:30 AM 31.3456 -90.3644 113° Southeast 525 604 37,000  Level Houston Center
Sun 11:42:32 AM 31.2981 -90.2056 109° East 519 597 37,000  Level Houston Center
Sun 11:43:34 AM 31.2800 -90.0389 97° East 515 593 37,000  Level Houston Center
Sun 11:44:36 AM 31.2592 -89.8736 98° East 513 590 37,000  Level Houston Center
Sun 11:45:38 AM 31.2392 -89.7083 98° East 512 589 37,000  Level Houston Center
Sun 11:46:40 AM 31.2197 -89.5428 98° East 513 590 37,000  Level Houston Center
Sun 11:47:42 AM 31.1939 -89.3458 99° East 511 588 37,000  Level Houston Center
Sun 11:48:44 AM 31.1719 -89.1797 99° East 515 593 37,000  Level Houston Center
Sun 11:49:46 AM 31.1511 -89.0147 98° East 514 592 37,000  Level Houston Center
Sun 11:50:49 AM 31.1306 -88.8639 99° East 510 587 37,000  Level Houston Center
Sun 11:51:51 AM 31.1047 -88.6672 99° East 511 588 37,000  Level Houston Center
Sun 11:52:53 AM 31.0858 -88.5228 99° East 511 588 37,000  Level Houston Center
Sun 11:53:55 AM 31.0639 -88.3572 99° East 517 595 37,000  Level Houston Center
Sun 11:54:57 AM 31.0378 -88.1606 99° East 513 590 37,000  Level Houston Center
Sun 11:55:59 AM 31.0158 -87.9967 99° East 512 589 37,000  Level Houston Center
Sun 11:57:01 AM 30.9931 -87.8350 99° East 507 583 37,000  Level Houston Center
Sun 11:58:03 AM 30.9703 -87.6714 99° East 505 581 37,000  Level Houston Center
Sun 11:59:05 AM 30.9475 -87.5081 99° East 510 587 37,000  Level Houston Center
Sun 12:00:08 PM 30.9258 -87.3444 99° East 511 588 37,000  Level Houston Center
Sun 12:01:10 PM 30.8978 -87.1497 99° East 510 587 37,000  Level Houston Center
Sun 12:02:12 PM 30.8717 -86.9950 101° East 508 585 37,000  Level Houston Center
Sun 12:03:14 PM 30.8483 -86.8333 100° East 508 585 37,000  Level Houston Center
Sun 12:04:16 PM 30.8217 -86.6700 101° East 511 588 37,000  Level Houston Center
Sun 12:05:18 PM 30.7689 -86.5131 111° Southeast 519 597 37,000  Level Houston Center
Sun 12:06:29 PM 30.7069 -86.3186 110° East 515 593 37,000  Level Jacksonville Center
Sun 12:07:29 PM 30.6567 -86.1622 110° East 515 593 37,000  Level Jacksonville Center
Sun 12:08:29 PM 30.6064 -86.0036 110° East 515 593 37,000  Level Jacksonville Center
Sun 12:09:29 PM 30.5539 -85.8475 111° Southeast 515 593 37,000  Level Jacksonville Center
Sun 12:10:29 PM 30.5050 -85.6917 110° East 515 593 37,000  Level Jacksonville Center
Sun 12:11:29 PM 30.4542 -85.5361 111° Southeast 515 593 37,000  Level Jacksonville Center
Sun 12:12:29 PM 30.4031 -85.3806 111° Southeast 515 593 37,000  Level Jacksonville Center
Sun 12:13:29 PM 30.3306 -85.2367 120° Southeast 515 593 37,000  Level Jacksonville Center
Sun 12:14:29 PM 30.2347 -85.1092 131° Southeast 521 600 37,000  Level Jacksonville Center
Sun 12:15:29 PM 30.1386 -84.9822 131° Southeast 521 600 37,000  Level Jacksonville Center
Sun 12:16:29 PM 30.0447 -84.8553 130° Southeast 526 605 37,000  Level Jacksonville Center
Sun 12:17:29 PM 29.9464 -84.7286 132° Southeast 526 605 37,000  Level Jacksonville Center
Sun 12:18:29 PM 29.8378 -84.5903 132° Southeast 521 600 37,000  Level Jacksonville Center
Sun 12:19:29 PM 29.7411 -84.4664 132° Southeast 521 600 37,000  Level Jacksonville Center
Sun 12:20:29 PM 29.6528 -84.3528 132° Southeast 521 600 37,000  Level Jacksonville Center
Sun 12:21:29 PM 29.5539 -84.2272 132° Southeast 526 605 37,000  Level Jacksonville Center
Sun 12:22:29 PM 29.4569 -84.1019 132° Southeast 526 605 37,000  Level Jacksonville Center
Sun 12:23:29 PM 29.3600 -83.9792 132° Southeast 526 605 37,000  Level Jacksonville Center
Sun 12:24:29 PM 29.2650 -83.8519 131° Southeast 526 605 37,000  Level Jacksonville Center
Sun 12:25:29 PM 29.1656 -83.7297 133° Southeast 526 605 37,000  Level Jacksonville Center
Sun 12:26:29 PM 29.0683 -83.6053 132° Southeast 526 605 37,000  Level Jacksonville Center
Sun 12:27:29 PM 28.9731 -83.4836 132° Southeast 526 605 37,000  Level Jacksonville Center
Sun 12:28:29 PM 28.8753 -83.3597 132° Southeast 521 600 37,000  Level Jacksonville Center
Sun 12:29:29 PM 28.7797 -83.2383 132° Southeast 521 600 37,000 -250 Level Jacksonville Center
Sun 12:30:29 PM 28.6653 -83.1386 143° Southeast 515 593 36,500 -500 Descending Jacksonville Center
Sun 12:31:29 PM 28.5525 -83.0414 143° Southeast 515 593 36,000 -479 Descending Jacksonville Center
Sun 12:33:37 PM 28.2936 -82.8233 143° Southeast 529 609 35,000 -319 Descending Miami Center
Sun 12:34:37 PM 28.1786 -82.7253 143° Southeast 529 609 35,000  Level Miami Center
Sun 12:35:36 PM 28.0639 -82.6278 143° Southeast 524 603 35,000  Level Miami Center
Sun 12:36:36 PM 27.9486 -82.5303 143° Southeast 524 603 35,000 -397 Level Miami Center
Sun 12:37:37 PM 27.8289 -82.4492 149° Southeast 519 597 34,200 -1,200 Descending Miami Center
Sun 12:38:36 PM 27.7147 -82.3803 152° Southeast 506 582 32,600 -1,765 Descending Miami Center
Sun 12:39:36 PM 27.5842 -82.2967 150° Southeast 501 577 30,700 -1,800 Descending Miami Center
Sun 12:40:36 PM 27.4661 -82.2231 151° Southeast 496 571 29,000 -1,650 Descending Miami Center
Sun 12:41:36 PM 27.3478 -82.1475 150° Southeast 491 565 27,400 -1,650 Descending Miami Center
Sun 12:42:36 PM 27.2417 -82.0844 152° Southeast 483 556 25,700 -1,650 Descending Miami Center
Sun 12:43:36 PM 27.1314 -82.0164 151° Southeast 475 547 24,100 -893 Descending Miami Center
Sun 12:44:37 PM 27.0144 -81.9575 156° South 462 532 23,900 -850 Descending Miami Center
Sun 12:45:36 PM 26.8972 -81.9058 159° South 457 526 22,400 -1,513 Descending Miami Center
Sun 12:46:36 PM 26.8064 -81.8136 138° Southeast 443 510 20,900 -1,488 Descending Miami Center
Sun 12:47:37 PM 26.7350 -81.7058 127° Southeast 426 490 19,400 -942 Descending Miami Center
Sun 12:48:37 PM 26.7189 -81.5589 97° East 402 463 19,000 -200 Descending Miami Center
Sun 12:49:37 PM 26.7378 -81.4294 81° East 402 463 19,000 -50 Level Miami Center
Sun 12:50:37 PM 26.7667 -81.3003 76° East 412 474 18,900 -1,200 Descending Miami Center
Sun 12:51:37 PM 26.7997 -81.1758 73° East 417 480 16,600 -2,550 Descending Miami Center
Sun 12:52:37 PM 26.8197 -81.0603 79° East 400 460 13,800 -2,800 Descending Miami Center
Sun 12:53:37 PM 26.8311 -80.9536 83° East 368 423 11,000 -1,900 Descending Miami Center
Sun 12:54:37 PM 26.8361 -80.8561 87° East 324 373 10,000 -500 Descending Miami Center
Sun 12:55:37 PM 26.8128 -80.7831 110° East 285 328 10,000 -350 Level Miami Center
Sun 12:56:37 PM 26.7758 -80.6867 113° Southeast 298 343 9,300 -950 Descending Miami Center
Sun 12:57:37 PM 26.7444 -80.6042 113° Southeast 303 349 8,100 -1,350 Descending Miami Center
Sun 12:58:37 PM 26.7153 -80.5219 112° Southeast 293 337 6,600 -1,450 Descending Miami Center
Sun 12:59:37 PM 26.6964 -80.4422 105° East 270 311 5,200 -1,412 Descending Miami Center
Sun 01:00:36 PM 26.6919 -80.3722 94° East 260 299 3,800 -1,350 Descending Miami Center
Sun 01:01:37 PM 26.6875 -80.2931 94° East 239 275 2,500 -900 Descending Miami Center
Sun 01:02:36 PM 26.6847 -80.2328 93° East 225 259 2,000 -508 Descending Miami Center
Sun 01:04:00 PM 26.6536 -80.1008 50° Northeast  Level FlightAware Approximate
Sun 01:11:00 PM 26.6667 -80.0833 50° Northeast  Level FlightAware Approximate
Sun 01:12:00 PM 26.6832 -80.0956 50° Northeast  Level Estimated
Sun 01:13:00 PM 26.6832 -80.0956 50° Northeast  Level Estimated
Sun 01:14:00 PM 26.6832 -80.0956 50° Northeast  Level Estimated

Login

Don't have an account? Register now (free) for customized features, flight alerts, and more!